sensor_id;sensor_type;location;lat;lon;timestamp;temperature;humidity
51007;DHT22;37034;47.886;-3.904;2023-08-30T00:01:49;19.50;93.90
51007;DHT22;37034;47.886;-3.904;2023-08-30T00:04:15;19.50;94.00
51007;DHT22;37034;47.886;-3.904;2023-08-30T00:06:41;19.60;94.00
51007;DHT22;37034;47.886;-3.904;2023-08-30T00:09:06;19.60;93.90
51007;DHT22;37034;47.886;-3.904;2023-08-30T00:11:32;19.70;93.80
51007;DHT22;37034;47.886;-3.904;2023-08-30T00:14:05;19.70;93.70
51007;DHT22;37034;47.886;-3.904;2023-08-30T00:16:35;19.60;93.60
51007;DHT22;37034;47.886;-3.904;2023-08-30T00:19:01;19.50;93.60
51007;DHT22;37034;47.886;-3.904;2023-08-30T00:21:26;19.50;93.70
51007;DHT22;37034;47.886;-3.904;2023-08-30T00:23:53;19.50;93.80
51007;DHT22;37034;47.886;-3.904;2023-08-30T00:26:18;19.50;93.70
51007;DHT22;37034;47.886;-3.904;2023-08-30T00:28:44;19.50;93.70
51007;DHT22;37034;47.886;-3.904;2023-08-30T00:31:09;19.50;93.60
51007;DHT22;37034;47.886;-3.904;2023-08-30T00:33:35;19.50;93.70
51007;DHT22;37034;47.886;-3.904;2023-08-30T00:36:01;19.50;93.60
51007;DHT22;37034;47.886;-3.904;2023-08-30T00:38:27;19.50;93.60
51007;DHT22;37034;47.886;-3.904;2023-08-30T00:40:53;19.40;93.60
51007;DHT22;37034;47.886;-3.904;2023-08-30T00:43:20;19.40;93.60
51007;DHT22;37034;47.886;-3.904;2023-08-30T00:45:47;19.40;93.60
51007;DHT22;37034;47.886;-3.904;2023-08-30T00:48:14;19.40;93.60
51007;DHT22;37034;47.886;-3.904;2023-08-30T00:50:41;19.30;93.70
51007;DHT22;37034;47.886;-3.904;2023-08-30T00:53:07;19.30;93.70
51007;DHT22;37034;47.886;-3.904;2023-08-30T00:55:37;19.30;93.70
51007;DHT22;37034;47.886;-3.904;2023-08-30T00:58:03;19.30;93.70
51007;DHT22;37034;47.886;-3.904;2023-08-30T01:00:32;19.40;93.60
51007;DHT22;37034;47.886;-3.904;2023-08-30T01:02:59;19.30;93.80
51007;DHT22;37034;47.886;-3.904;2023-08-30T01:05:25;19.30;93.50
51007;DHT22;37034;47.886;-3.904;2023-08-30T01:07:51;19.30;93.50
51007;DHT22;37034;47.886;-3.904;2023-08-30T01:10:18;19.30;93.40
51007;DHT22;37034;47.886;-3.904;2023-08-30T01:12:49;19.30;93.40
51007;DHT22;37034;47.886;-3.904;2023-08-30T01:15:23;19.20;93.40
51007;DHT22;37034;47.886;-3.904;2023-08-30T01:17:52;19.20;93.30
51007;DHT22;37034;47.886;-3.904;2023-08-30T01:20:19;19.10;93.30
51007;DHT22;37034;47.886;-3.904;2023-08-30T01:25:55;19.10;93.30
51007;DHT22;37034;47.886;-3.904;2023-08-30T01:28:25;19.10;93.40
51007;DHT22;37034;47.886;-3.904;2023-08-30T01:30:52;19.10;93.20
51007;DHT22;37034;47.886;-3.904;2023-08-30T01:33:23;19.10;93.20
51007;DHT22;37034;47.886;-3.904;2023-08-30T01:35:49;19.00;93.10
51007;DHT22;37034;47.886;-3.904;2023-08-30T01:38:16;19.00;93.20
51007;DHT22;37034;47.886;-3.904;2023-08-30T01:40:42;19.00;93.20
51007;DHT22;37034;47.886;-3.904;2023-08-30T01:43:09;19.00;93.20
51007;DHT22;37034;47.886;-3.904;2023-08-30T01:45:40;19.00;93.10
51007;DHT22;37034;47.886;-3.904;2023-08-30T01:48:09;18.90;93.00
51007;DHT22;37034;47.886;-3.904;2023-08-30T01:50:35;18.90;93.00
51007;DHT22;37034;47.886;-3.904;2023-08-30T01:53:02;18.80;93.10
51007;DHT22;37034;47.886;-3.904;2023-08-30T01:55:28;18.80;93.10
51007;DHT22;37034;47.886;-3.904;2023-08-30T01:57:55;18.70;93.00
51007;DHT22;37034;47.886;-3.904;2023-08-30T02:00:20;18.70;93.10
51007;DHT22;37034;47.886;-3.904;2023-08-30T02:02:47;18.70;93.10
51007;DHT22;37034;47.886;-3.904;2023-08-30T02:05:13;18.60;93.10
51007;DHT22;37034;47.886;-3.904;2023-08-30T02:08:03;18.60;93.00
51007;DHT22;37034;47.886;-3.904;2023-08-30T02:10:35;18.60;93.30
51007;DHT22;37034;47.886;-3.904;2023-08-30T02:13:04;18.50;92.90
51007;DHT22;37034;47.886;-3.904;2023-08-30T02:15:31;18.50;93.00
51007;DHT22;37034;47.886;-3.904;2023-08-30T02:17:59;18.40;92.90
51007;DHT22;37034;47.886;-3.904;2023-08-30T02:20:25;18.40;92.90
51007;DHT22;37034;47.886;-3.904;2023-08-30T02:22:51;18.40;93.00
51007;DHT22;37034;47.886;-3.904;2023-08-30T02:25:17;18.40;92.90
51007;DHT22;37034;47.886;-3.904;2023-08-30T02:27:42;18.30;92.90
51007;DHT22;37034;47.886;-3.904;2023-08-30T02:30:08;18.30;92.90
51007;DHT22;37034;47.886;-3.904;2023-08-30T02:32:34;18.30;92.90
51007;DHT22;37034;47.886;-3.904;2023-08-30T02:35:00;18.20;92.90
51007;DHT22;37034;47.886;-3.904;2023-08-30T02:37:25;18.20;93.20
51007;DHT22;37034;47.886;-3.904;2023-08-30T02:39:51;18.20;93.00
51007;DHT22;37034;47.886;-3.904;2023-08-30T02:42:17;18.20;92.90
51007;DHT22;37034;47.886;-3.904;2023-08-30T02:44:42;18.20;92.90
51007;DHT22;37034;47.886;-3.904;2023-08-30T02:47:08;18.20;92.80
51007;DHT22;37034;47.886;-3.904;2023-08-30T02:49:34;18.10;92.70
51007;DHT22;37034;47.886;-3.904;2023-08-30T02:51:59;18.10;92.80
51007;DHT22;37034;47.886;-3.904;2023-08-30T02:54:25;18.10;92.70
51007;DHT22;37034;47.886;-3.904;2023-08-30T02:56:50;18.00;92.60
51007;DHT22;37034;47.886;-3.904;2023-08-30T02:59:16;18.00;92.70
51007;DHT22;37034;47.886;-3.904;2023-08-30T03:01:42;18.00;92.70
51007;DHT22;37034;47.886;-3.904;2023-08-30T03:04:08;18.00;92.70
51007;DHT22;37034;47.886;-3.904;2023-08-30T03:06:34;17.90;92.70
51007;DHT22;37034;47.886;-3.904;2023-08-30T03:09:00;17.90;92.70
51007;DHT22;37034;47.886;-3.904;2023-08-30T03:11:25;17.90;92.60
51007;DHT22;37034;47.886;-3.904;2023-08-30T03:13:53;17.80;92.60
51007;DHT22;37034;47.886;-3.904;2023-08-30T03:16:19;17.80;92.60
51007;DHT22;37034;47.886;-3.904;2023-08-30T03:18:46;17.70;92.50
51007;DHT22;37034;47.886;-3.904;2023-08-30T03:21:11;17.70;92.50
51007;DHT22;37034;47.886;-3.904;2023-08-30T03:23:38;17.70;92.50
51007;DHT22;37034;47.886;-3.904;2023-08-30T03:26:14;17.60;92.60
51007;DHT22;37034;47.886;-3.904;2023-08-30T03:28:42;17.60;92.70
51007;DHT22;37034;47.886;-3.904;2023-08-30T03:31:14;17.60;92.70
51007;DHT22;37034;47.886;-3.904;2023-08-30T03:33:40;17.50;92.60
51007;DHT22;37034;47.886;-3.904;2023-08-30T03:36:10;17.50;92.60
51007;DHT22;37034;47.886;-3.904;2023-08-30T03:38:36;17.50;92.70
51007;DHT22;37034;47.886;-3.904;2023-08-30T03:41:03;17.40;92.90
51007;DHT22;37034;47.886;-3.904;2023-08-30T03:43:32;17.40;92.80
51007;DHT22;37034;47.886;-3.904;2023-08-30T03:45:59;17.40;92.80
51007;DHT22;37034;47.886;-3.904;2023-08-30T03:48:26;17.40;92.80
51007;DHT22;37034;47.886;-3.904;2023-08-30T03:50:52;17.40;92.90
51007;DHT22;37034;47.886;-3.904;2023-08-30T03:53:17;17.30;92.90
51007;DHT22;37034;47.886;-3.904;2023-08-30T03:55:43;17.30;93.00
51007;DHT22;37034;47.886;-3.904;2023-08-30T03:58:09;17.30;92.90
51007;DHT22;37034;47.886;-3.904;2023-08-30T04:00:38;17.30;93.00
51007;DHT22;37034;47.886;-3.904;2023-08-30T04:03:05;17.30;93.00
51007;DHT22;37034;47.886;-3.904;2023-08-30T04:05:34;17.30;93.00
51007;DHT22;37034;47.886;-3.904;2023-08-30T04:08:01;17.30;92.90
51007;DHT22;37034;47.886;-3.904;2023-08-30T04:10:27;17.40;92.90
51007;DHT22;37034;47.886;-3.904;2023-08-30T04:12:53;17.40;92.70
51007;DHT22;37034;47.886;-3.904;2023-08-30T04:15:19;17.40;92.80
51007;DHT22;37034;47.886;-3.904;2023-08-30T04:17:45;17.40;92.80
51007;DHT22;37034;47.886;-3.904;2023-08-30T04:20:10;17.40;92.80
51007;DHT22;37034;47.886;-3.904;2023-08-30T04:22:36;17.40;92.70
51007;DHT22;37034;47.886;-3.904;2023-08-30T04:25:03;17.30;92.60
51007;DHT22;37034;47.886;-3.904;2023-08-30T04:27:29;17.30;92.60
51007;DHT22;37034;47.886;-3.904;2023-08-30T04:29:55;17.20;92.60
51007;DHT22;37034;47.886;-3.904;2023-08-30T04:32:21;17.20;92.70
51007;DHT22;37034;47.886;-3.904;2023-08-30T04:34:46;17.20;92.70
51007;DHT22;37034;47.886;-3.904;2023-08-30T04:37:12;17.10;92.60
51007;DHT22;37034;47.886;-3.904;2023-08-30T04:39:37;17.10;92.70
51007;DHT22;37034;47.886;-3.904;2023-08-30T04:42:03;16.80;96.10
51007;DHT22;37034;47.886;-3.904;2023-08-30T04:44:29;17.10;98.10
51007;DHT22;37034;47.886;-3.904;2023-08-30T04:46:57;17.10;92.60
51007;DHT22;37034;47.886;-3.904;2023-08-30T04:49:23;17.00;92.80
51007;DHT22;37034;47.886;-3.904;2023-08-30T04:51:50;17.00;94.40
51007;DHT22;37034;47.886;-3.904;2023-08-30T04:54:16;17.00;93.00
51007;DHT22;37034;47.886;-3.904;2023-08-30T04:56:42;17.00;92.80
51007;DHT22;37034;47.886;-3.904;2023-08-30T04:59:08;17.00;93.00
51007;DHT22;37034;47.886;-3.904;2023-08-30T05:01:33;17.10;92.90
51007;DHT22;37034;47.886;-3.904;2023-08-30T05:03:59;17.10;92.90
51007;DHT22;37034;47.886;-3.904;2023-08-30T05:06:24;17.10;92.80
51007;DHT22;37034;47.886;-3.904;2023-08-30T05:08:50;17.10;92.70
51007;DHT22;37034;47.886;-3.904;2023-08-30T05:11:16;17.10;92.80
51007;DHT22;37034;47.886;-3.904;2023-08-30T05:13:42;17.10;92.90
51007;DHT22;37034;47.886;-3.904;2023-08-30T05:16:07;17.10;92.90
51007;DHT22;37034;47.886;-3.904;2023-08-30T05:18:33;17.10;92.80
51007;DHT22;37034;47.886;-3.904;2023-08-30T05:20:58;17.20;92.80
51007;DHT22;37034;47.886;-3.904;2023-08-30T05:23:24;17.10;92.70
51007;DHT22;37034;47.886;-3.904;2023-08-30T05:25:50;17.10;92.60
51007;DHT22;37034;47.886;-3.904;2023-08-30T05:28:15;17.10;92.70
51007;DHT22;37034;47.886;-3.904;2023-08-30T05:30:42;17.10;92.70
51007;DHT22;37034;47.886;-3.904;2023-08-30T05:33:08;17.10;92.80
51007;DHT22;37034;47.886;-3.904;2023-08-30T05:35:34;17.00;92.70
51007;DHT22;37034;47.886;-3.904;2023-08-30T05:38:00;17.00;92.80
51007;DHT22;37034;47.886;-3.904;2023-08-30T05:40:26;17.00;92.80
51007;DHT22;37034;47.886;-3.904;2023-08-30T05:42:51;17.00;92.80
51007;DHT22;37034;47.886;-3.904;2023-08-30T05:45:17;17.00;92.80
51007;DHT22;37034;47.886;-3.904;2023-08-30T05:47:43;16.90;93.00
51007;DHT22;37034;47.886;-3.904;2023-08-30T05:50:08;16.90;92.90
51007;DHT22;37034;47.886;-3.904;2023-08-30T05:52:34;17.00;92.80
51007;DHT22;37034;47.886;-3.904;2023-08-30T05:55:00;17.00;92.80
51007;DHT22;37034;47.886;-3.904;2023-08-30T05:57:26;17.00;92.80
51007;DHT22;37034;47.886;-3.904;2023-08-30T05:59:54;17.00;92.80
51007;DHT22;37034;47.886;-3.904;2023-08-30T06:02:19;17.00;92.70
51007;DHT22;37034;47.886;-3.904;2023-08-30T06:04:45;17.00;92.80
51007;DHT22;37034;47.886;-3.904;2023-08-30T06:07:11;17.00;92.70
51007;DHT22;37034;47.886;-3.904;2023-08-30T06:09:36;16.80;92.70
51007;DHT22;37034;47.886;-3.904;2023-08-30T06:12:03;16.80;92.80
51007;DHT22;37034;47.886;-3.904;2023-08-30T06:14:29;16.80;92.90
51007;DHT22;37034;47.886;-3.904;2023-08-30T06:16:54;16.80;92.90
51007;DHT22;37034;47.886;-3.904;2023-08-30T06:19:20;16.80;93.00
51007;DHT22;37034;47.886;-3.904;2023-08-30T06:21:45;16.70;93.10
51007;DHT22;37034;47.886;-3.904;2023-08-30T06:24:11;16.80;93.10
51007;DHT22;37034;47.886;-3.904;2023-08-30T06:26:37;16.70;93.20
51007;DHT22;37034;47.886;-3.904;2023-08-30T06:29:02;16.80;93.30
51007;DHT22;37034;47.886;-3.904;2023-08-30T06:31:28;16.70;93.50
51007;DHT22;37034;47.886;-3.904;2023-08-30T06:33:54;16.80;93.50
51007;DHT22;37034;47.886;-3.904;2023-08-30T06:36:20;16.80;93.60
51007;DHT22;37034;47.886;-3.904;2023-08-30T06:38:48;16.90;93.90
51007;DHT22;37034;47.886;-3.904;2023-08-30T06:41:13;17.00;93.70
51007;DHT22;37034;47.886;-3.904;2023-08-30T06:43:39;17.10;93.90
51007;DHT22;37034;47.886;-3.904;2023-08-30T06:46:05;17.10;93.80
51007;DHT22;37034;47.886;-3.904;2023-08-30T06:48:30;17.20;93.70
51007;DHT22;37034;47.886;-3.904;2023-08-30T06:50:59;17.20;93.80
51007;DHT22;37034;47.886;-3.904;2023-08-30T06:53:28;17.20;93.80
51007;DHT22;37034;47.886;-3.904;2023-08-30T06:55:58;17.30;93.90
51007;DHT22;37034;47.886;-3.904;2023-08-30T06:58:24;17.30;93.90
51007;DHT22;37034;47.886;-3.904;2023-08-30T07:00:49;17.40;93.90
51007;DHT22;37034;47.886;-3.904;2023-08-30T07:03:15;17.50;94.00
51007;DHT22;37034;47.886;-3.904;2023-08-30T07:05:41;17.50;94.00
51007;DHT22;37034;47.886;-3.904;2023-08-30T07:08:09;17.60;94.00
51007;DHT22;37034;47.886;-3.904;2023-08-30T07:10:34;17.70;94.00
51007;DHT22;37034;47.886;-3.904;2023-08-30T07:13:00;17.80;94.20
51007;DHT22;37034;47.886;-3.904;2023-08-30T07:15:26;18.00;94.00
51007;DHT22;37034;47.886;-3.904;2023-08-30T07:17:51;18.10;93.90
51007;DHT22;37034;47.886;-3.904;2023-08-30T07:20:17;18.20;93.90
51007;DHT22;37034;47.886;-3.904;2023-08-30T07:22:42;18.30;93.90
51007;DHT22;37034;47.886;-3.904;2023-08-30T07:25:08;18.40;93.70
51007;DHT22;37034;47.886;-3.904;2023-08-30T07:27:36;18.40;93.60
51007;DHT22;37034;47.886;-3.904;2023-08-30T07:30:03;18.40;93.70
51007;DHT22;37034;47.886;-3.904;2023-08-30T07:32:29;18.60;93.80
51007;DHT22;37034;47.886;-3.904;2023-08-30T07:34:55;18.70;94.00
51007;DHT22;37034;47.886;-3.904;2023-08-30T07:37:22;18.70;93.60
51007;DHT22;37034;47.886;-3.904;2023-08-30T07:39:47;18.80;93.80
51007;DHT22;37034;47.886;-3.904;2023-08-30T07:42:14;18.90;93.20
51007;DHT22;37034;47.886;-3.904;2023-08-30T07:44:40;18.80;92.60
51007;DHT22;37034;47.886;-3.904;2023-08-30T07:47:06;18.70;92.90
51007;DHT22;37034;47.886;-3.904;2023-08-30T07:49:32;18.60;93.00
51007;DHT22;37034;47.886;-3.904;2023-08-30T07:51:57;18.70;93.60
51007;DHT22;37034;47.886;-3.904;2023-08-30T07:54:23;18.80;93.80
51007;DHT22;37034;47.886;-3.904;2023-08-30T07:56:48;18.80;93.30
51007;DHT22;37034;47.886;-3.904;2023-08-30T07:59:14;18.90;93.40
51007;DHT22;37034;47.886;-3.904;2023-08-30T08:01:40;19.00;93.30
51007;DHT22;37034;47.886;-3.904;2023-08-30T08:04:06;19.20;93.70
51007;DHT22;37034;47.886;-3.904;2023-08-30T08:06:31;19.20;93.20
51007;DHT22;37034;47.886;-3.904;2023-08-30T08:08:57;19.30;93.00
51007;DHT22;37034;47.886;-3.904;2023-08-30T08:11:23;19.20;93.00
51007;DHT22;37034;47.886;-3.904;2023-08-30T08:13:49;19.10;93.00
51007;DHT22;37034;47.886;-3.904;2023-08-30T08:16:14;19.10;92.90
51007;DHT22;37034;47.886;-3.904;2023-08-30T08:18:40;19.20;93.30
51007;DHT22;37034;47.886;-3.904;2023-08-30T08:21:05;19.20;93.20
51007;DHT22;37034;47.886;-3.904;2023-08-30T08:23:31;19.30;93.40
51007;DHT22;37034;47.886;-3.904;2023-08-30T08:26:00;19.30;92.70
51007;DHT22;37034;47.886;-3.904;2023-08-30T08:28:27;19.20;93.20
51007;DHT22;37034;47.886;-3.904;2023-08-30T08:30:52;19.50;93.30
51007;DHT22;37034;47.886;-3.904;2023-08-30T08:33:18;19.60;93.20
51007;DHT22;37034;47.886;-3.904;2023-08-30T08:35:44;19.70;92.10
51007;DHT22;37034;47.886;-3.904;2023-08-30T08:38:10;19.70;92.80
51007;DHT22;37034;47.886;-3.904;2023-08-30T08:40:39;19.80;92.00
51007;DHT22;37034;47.886;-3.904;2023-08-30T08:43:05;19.80;92.50
51007;DHT22;37034;47.886;-3.904;2023-08-30T08:45:39;19.80;92.70
51007;DHT22;37034;47.886;-3.904;2023-08-30T08:48:06;19.80;91.70
51007;DHT22;37034;47.886;-3.904;2023-08-30T08:50:32;20.00;92.40
51007;DHT22;37034;47.886;-3.904;2023-08-30T08:52:59;19.80;91.40
51007;DHT22;37034;47.886;-3.904;2023-08-30T08:55:27;19.90;91.20
51007;DHT22;37034;47.886;-3.904;2023-08-30T08:57:56;20.00;91.90
51007;DHT22;37034;47.886;-3.904;2023-08-30T09:00:23;20.20;91.60
51007;DHT22;37034;47.886;-3.904;2023-08-30T09:02:49;20.30;91.80
51007;DHT22;37034;47.886;-3.904;2023-08-30T09:05:18;20.40;91.30
51007;DHT22;37034;47.886;-3.904;2023-08-30T09:07:44;20.40;90.30
51007;DHT22;37034;47.886;-3.904;2023-08-30T09:10:11;20.40;90.90
51007;DHT22;37034;47.886;-3.904;2023-08-30T09:12:36;20.60;91.30
51007;DHT22;37034;47.886;-3.904;2023-08-30T09:15:02;20.70;91.20
51007;DHT22;37034;47.886;-3.904;2023-08-30T09:17:39;20.80;90.20
51007;DHT22;37034;47.886;-3.904;2023-08-30T09:20:08;20.80;91.00
51007;DHT22;37034;47.886;-3.904;2023-08-30T09:22:42;21.00;91.50
51007;DHT22;37034;47.886;-3.904;2023-08-30T09:25:10;21.00;89.40
51007;DHT22;37034;47.886;-3.904;2023-08-30T09:27:36;21.10;90.30
51007;DHT22;37034;47.886;-3.904;2023-08-30T09:30:05;20.90;89.00
51007;DHT22;37034;47.886;-3.904;2023-08-30T09:32:41;20.90;90.40
51007;DHT22;37034;47.886;-3.904;2023-08-30T09:35:10;21.00;90.00
51007;DHT22;37034;47.886;-3.904;2023-08-30T09:37:36;21.10;89.80
51007;DHT22;37034;47.886;-3.904;2023-08-30T09:40:01;21.20;89.00
51007;DHT22;37034;47.886;-3.904;2023-08-30T09:42:28;21.30;84.70
51007;DHT22;37034;47.886;-3.904;2023-08-30T09:44:53;21.10;85.80
51007;DHT22;37034;47.886;-3.904;2023-08-30T09:47:19;21.20;88.80
51007;DHT22;37034;47.886;-3.904;2023-08-30T09:49:45;21.30;86.90
51007;DHT22;37034;47.886;-3.904;2023-08-30T09:52:15;21.30;87.20
51007;DHT22;37034;47.886;-3.904;2023-08-30T09:54:42;21.40;88.00
51007;DHT22;37034;47.886;-3.904;2023-08-30T09:57:10;21.40;87.90
51007;DHT22;37034;47.886;-3.904;2023-08-30T09:59:37;21.50;85.90
51007;DHT22;37034;47.886;-3.904;2023-08-30T10:02:03;21.40;85.10
51007;DHT22;37034;47.886;-3.904;2023-08-30T10:04:31;21.40;88.50
51007;DHT22;37034;47.886;-3.904;2023-08-30T10:06:58;21.60;89.80
51007;DHT22;37034;47.886;-3.904;2023-08-30T10:09:25;21.70;89.40
51007;DHT22;37034;47.886;-3.904;2023-08-30T10:11:51;21.90;88.90
51007;DHT22;37034;47.886;-3.904;2023-08-30T10:14:17;21.90;87.10
51007;DHT22;37034;47.886;-3.904;2023-08-30T10:16:44;22.00;88.50
51007;DHT22;37034;47.886;-3.904;2023-08-30T10:19:21;22.10;87.90
51007;DHT22;37034;47.886;-3.904;2023-08-30T10:22:02;22.20;88.30
51007;DHT22;37034;47.886;-3.904;2023-08-30T10:24:43;22.30;87.90
51007;DHT22;37034;47.886;-3.904;2023-08-30T10:27:11;22.40;86.70
51007;DHT22;37034;47.886;-3.904;2023-08-30T10:29:37;22.60;87.90
51007;DHT22;37034;47.886;-3.904;2023-08-30T10:32:04;22.70;87.70
51007;DHT22;37034;47.886;-3.904;2023-08-30T10:34:34;22.90;87.80
51007;DHT22;37034;47.886;-3.904;2023-08-30T10:37:01;22.90;86.60
51007;DHT22;37034;47.886;-3.904;2023-08-30T10:39:36;22.80;84.00
51007;DHT22;37034;47.886;-3.904;2023-08-30T10:42:13;22.70;84.50
51007;DHT22;37034;47.886;-3.904;2023-08-30T10:44:49;22.50;84.10
51007;DHT22;37034;47.886;-3.904;2023-08-30T10:47:19;22.50;84.20
51007;DHT22;37034;47.886;-3.904;2023-08-30T10:49:47;22.50;84.10
51007;DHT22;37034;47.886;-3.904;2023-08-30T10:52:13;22.60;84.50
51007;DHT22;37034;47.886;-3.904;2023-08-30T10:54:39;22.70;85.00
51007;DHT22;37034;47.886;-3.904;2023-08-30T10:57:05;22.90;85.50
51007;DHT22;37034;47.886;-3.904;2023-08-30T10:59:31;23.00;85.10
51007;DHT22;37034;47.886;-3.904;2023-08-30T11:02:01;23.10;83.50
51007;DHT22;37034;47.886;-3.904;2023-08-30T11:04:26;23.10;85.10
51007;DHT22;37034;47.886;-3.904;2023-08-30T11:06:52;23.20;84.60
51007;DHT22;37034;47.886;-3.904;2023-08-30T11:09:20;23.20;81.70
51007;DHT22;37034;47.886;-3.904;2023-08-30T11:11:46;23.10;82.70
51007;DHT22;37034;47.886;-3.904;2023-08-30T11:14:13;23.00;82.40
51007;DHT22;37034;47.886;-3.904;2023-08-30T11:16:39;22.90;82.10
51007;DHT22;37034;47.886;-3.904;2023-08-30T11:19:05;22.70;82.80
51007;DHT22;37034;47.886;-3.904;2023-08-30T11:21:37;22.80;81.90
51007;DHT22;37034;47.886;-3.904;2023-08-30T11:24:04;22.90;82.70
51007;DHT22;37034;47.886;-3.904;2023-08-30T11:26:30;22.90;83.50
51007;DHT22;37034;47.886;-3.904;2023-08-30T11:28:55;23.10;84.20
51007;DHT22;37034;47.886;-3.904;2023-08-30T11:31:21;23.20;82.90
51007;DHT22;37034;47.886;-3.904;2023-08-30T11:33:58;23.30;84.00
51007;DHT22;37034;47.886;-3.904;2023-08-30T11:36:31;23.50;81.40
51007;DHT22;37034;47.886;-3.904;2023-08-30T11:38:58;23.50;82.20
51007;DHT22;37034;47.886;-3.904;2023-08-30T11:41:25;23.50;81.30
51007;DHT22;37034;47.886;-3.904;2023-08-30T11:43:51;23.60;81.60
51007;DHT22;37034;47.886;-3.904;2023-08-30T11:46:19;23.70;82.40
51007;DHT22;37034;47.886;-3.904;2023-08-30T11:48:47;23.60;80.30
51007;DHT22;37034;47.886;-3.904;2023-08-30T11:51:13;23.70;82.40
51007;DHT22;37034;47.886;-3.904;2023-08-30T11:53:39;23.90;82.20
51007;DHT22;37034;47.886;-3.904;2023-08-30T11:56:08;24.00;80.30
51007;DHT22;37034;47.886;-3.904;2023-08-30T11:58:37;24.10;80.40
51007;DHT22;37034;47.886;-3.904;2023-08-30T12:01:04;23.90;79.60
51007;DHT22;37034;47.886;-3.904;2023-08-30T12:03:30;24.00;79.80
51007;DHT22;37034;47.886;-3.904;2023-08-30T12:05:57;23.90;78.90
51007;DHT22;37034;47.886;-3.904;2023-08-30T12:08:24;23.90;78.50
51007;DHT22;37034;47.886;-3.904;2023-08-30T12:10:51;23.90;78.60
51007;DHT22;37034;47.886;-3.904;2023-08-30T12:13:26;23.90;79.00
51007;DHT22;37034;47.886;-3.904;2023-08-30T12:15:55;23.90;79.40
51007;DHT22;37034;47.886;-3.904;2023-08-30T12:18:27;24.10;80.80
51007;DHT22;37034;47.886;-3.904;2023-08-30T12:21:04;24.20;80.00
51007;DHT22;37034;47.886;-3.904;2023-08-30T12:23:31;24.20;78.10
51007;DHT22;37034;47.886;-3.904;2023-08-30T12:26:04;24.20;77.00
51007;DHT22;37034;47.886;-3.904;2023-08-30T12:28:34;24.10;77.40
51007;DHT22;37034;47.886;-3.904;2023-08-30T12:31:00;24.10;79.70
51007;DHT22;37034;47.886;-3.904;2023-08-30T12:33:26;24.20;79.50
51007;DHT22;37034;47.886;-3.904;2023-08-30T12:35:54;24.40;79.20
51007;DHT22;37034;47.886;-3.904;2023-08-30T12:38:19;24.50;79.10
51007;DHT22;37034;47.886;-3.904;2023-08-30T12:40:49;24.70;77.80
51007;DHT22;37034;47.886;-3.904;2023-08-30T12:43:16;24.80;77.50
51007;DHT22;37034;47.886;-3.904;2023-08-30T12:45:43;24.70;77.20
51007;DHT22;37034;47.886;-3.904;2023-08-30T12:48:10;24.60;76.50
51007;DHT22;37034;47.886;-3.904;2023-08-30T12:50:37;24.50;77.20
51007;DHT22;37034;47.886;-3.904;2023-08-30T12:53:04;24.50;78.40
51007;DHT22;37034;47.886;-3.904;2023-08-30T12:55:29;24.60;77.30
51007;DHT22;37034;47.886;-3.904;2023-08-30T12:57:55;24.60;75.00
51007;DHT22;37034;47.886;-3.904;2023-08-30T13:00:23;24.60;76.20
51007;DHT22;37034;47.886;-3.904;2023-08-30T13:02:50;24.50;76.50
51007;DHT22;37034;47.886;-3.904;2023-08-30T13:05:16;24.50;76.60
51007;DHT22;37034;47.886;-3.904;2023-08-30T13:07:42;24.30;76.30
51007;DHT22;37034;47.886;-3.904;2023-08-30T13:10:08;24.20;76.60
51007;DHT22;37034;47.886;-3.904;2023-08-30T13:12:34;24.20;76.30
51007;DHT22;37034;47.886;-3.904;2023-08-30T13:15:00;24.10;76.10
51007;DHT22;37034;47.886;-3.904;2023-08-30T13:17:26;24.10;76.10
51007;DHT22;37034;47.886;-3.904;2023-08-30T13:19:52;24.20;75.60
51007;DHT22;37034;47.886;-3.904;2023-08-30T13:22:17;24.30;76.50
51007;DHT22;37034;47.886;-3.904;2023-08-30T13:24:44;24.20;76.90
51007;DHT22;37034;47.886;-3.904;2023-08-30T13:27:10;24.20;76.80
51007;DHT22;37034;47.886;-3.904;2023-08-30T13:29:36;24.30;77.10
51007;DHT22;37034;47.886;-3.904;2023-08-30T13:32:02;24.40;77.20
51007;DHT22;37034;47.886;-3.904;2023-08-30T13:34:28;24.50;75.50
51007;DHT22;37034;47.886;-3.904;2023-08-30T13:36:54;24.40;75.70
51007;DHT22;37034;47.886;-3.904;2023-08-30T13:39:19;24.40;75.10
51007;DHT22;37034;47.886;-3.904;2023-08-30T13:41:48;24.30;75.40
51007;DHT22;37034;47.886;-3.904;2023-08-30T13:44:14;24.10;74.90
51007;DHT22;37034;47.886;-3.904;2023-08-30T13:46:40;24.10;75.40
51007;DHT22;37034;47.886;-3.904;2023-08-30T13:49:07;24.10;76.10
51007;DHT22;37034;47.886;-3.904;2023-08-30T13:51:32;24.20;76.10
51007;DHT22;37034;47.886;-3.904;2023-08-30T13:53:58;24.30;75.00
51007;DHT22;37034;47.886;-3.904;2023-08-30T13:56:24;24.40;75.10
51007;DHT22;37034;47.886;-3.904;2023-08-30T13:58:50;24.30;73.70
51007;DHT22;37034;47.886;-3.904;2023-08-30T14:01:16;24.00;72.90
51007;DHT22;37034;47.886;-3.904;2023-08-30T14:03:42;24.00;74.10
51007;DHT22;37034;47.886;-3.904;2023-08-30T14:06:08;24.10;74.10
51007;DHT22;37034;47.886;-3.904;2023-08-30T14:08:34;24.20;74.60
51007;DHT22;37034;47.886;-3.904;2023-08-30T14:11:00;24.20;72.50
51007;DHT22;37034;47.886;-3.904;2023-08-30T14:13:26;24.20;73.00
51007;DHT22;37034;47.886;-3.904;2023-08-30T14:15:53;24.10;72.90
51007;DHT22;37034;47.886;-3.904;2023-08-30T14:18:19;24.20;73.60
51007;DHT22;37034;47.886;-3.904;2023-08-30T14:20:45;24.20;73.90
51007;DHT22;37034;47.886;-3.904;2023-08-30T14:23:10;24.20;72.30
51007;DHT22;37034;47.886;-3.904;2023-08-30T14:25:36;24.20;72.00
51007;DHT22;37034;47.886;-3.904;2023-08-30T14:28:02;24.10;71.80
51007;DHT22;37034;47.886;-3.904;2023-08-30T14:30:29;24.10;72.40
51007;DHT22;37034;47.886;-3.904;2023-08-30T14:32:55;24.10;72.20
51007;DHT22;37034;47.886;-3.904;2023-08-30T14:35:21;24.10;71.40
51007;DHT22;37034;47.886;-3.904;2023-08-30T14:37:47;24.00;72.30
51007;DHT22;37034;47.886;-3.904;2023-08-30T14:40:13;24.10;71.70
51007;DHT22;37034;47.886;-3.904;2023-08-30T14:42:39;24.00;71.00
51007;DHT22;37034;47.886;-3.904;2023-08-30T14:45:06;24.00;72.50
51007;DHT22;37034;47.886;-3.904;2023-08-30T14:47:35;24.10;72.40
51007;DHT22;37034;47.886;-3.904;2023-08-30T14:50:01;24.10;71.00
51007;DHT22;37034;47.886;-3.904;2023-08-30T14:52:28;24.10;71.10
51007;DHT22;37034;47.886;-3.904;2023-08-30T14:54:54;24.10;71.10
51007;DHT22;37034;47.886;-3.904;2023-08-30T14:57:19;24.10;70.50
51007;DHT22;37034;47.886;-3.904;2023-08-30T14:59:46;24.10;69.70
51007;DHT22;37034;47.886;-3.904;2023-08-30T15:02:12;23.90;70.40
51007;DHT22;37034;47.886;-3.904;2023-08-30T15:04:37;24.00;70.50
51007;DHT22;37034;47.886;-3.904;2023-08-30T15:07:03;24.00;70.50
51007;DHT22;37034;47.886;-3.904;2023-08-30T15:09:31;24.00;70.30
51007;DHT22;37034;47.886;-3.904;2023-08-30T15:11:57;24.00;70.90
51007;DHT22;37034;47.886;-3.904;2023-08-30T15:14:26;24.10;70.70
51007;DHT22;37034;47.886;-3.904;2023-08-30T15:16:52;24.10;70.80